Time;durP1;ratioP1;P1;durP2;ratioP2;P2;SDS_P1;SDS_P2;PMS_P1;PMS_P2;Temp;Humidity;BMP_temperature;BMP_pressure;BME280_temperature;BME280_humidity;BME280_pressure;Samples;Min_cycle;Max_cycle;Signal;HPM_P1;HPM_P2
2022/09/21 00:01:31;;;;;;;;;;;;;;;;;;5031427;28;19909;-65
2022/09/21 00:03:57;;;;;;;;;;;;;;;;;;5031605;28;19904;-69
2022/09/21 00:06:23;;;;;;;;;;;;;;;;;;5031339;28;20412;-65
2022/09/21 00:08:48;;;;;;;;;;;;;;;;;;5031351;28;20257;-66
2022/09/21 00:11:14;;;;;;;;;;;;;;;;;;5031279;28;19937;-66
2022/09/21 00:13:41;;;;;;;;;;;;;;;;;;5013598;28;19967;-64
2022/09/21 00:16:07;;;;;;;;;;;;;;;;;;5031117;28;19909;-64
2022/09/21 00:18:34;;;;;;;;;;;;;;;;;;5031186;28;20353;-65
2022/09/21 00:21:01;;;;;;;;;;;;;;;;;;5013467;28;19948;-64
2022/09/21 00:23:27;;;;;;;;;;;;;;;;;;5031334;28;19909;-64
2022/09/21 00:25:53;;;;;;;;;;;;;;;;;;5013426;28;20245;-66
2022/09/21 00:28:19;;;;;;;;;;;;;;;;;;5031195;28;19913;-66
2022/09/21 00:30:50;;;;;;;;;;;;;;;;;;5031010;28;19909;-66
2022/09/21 00:33:16;;;;;;;;;;;;;;;;;;5031014;28;19952;-68
2022/09/21 00:35:42;;;;;;;;;;;;;;;;;;5031299;28;19972;-67
2022/09/21 00:38:08;;;;;;;;;;;;;;;;;;5013115;28;19917;-65
2022/09/21 00:40:34;;;;;;;;;;;;;;;;;;5030857;28;19936;-66
2022/09/21 00:43:00;;;;;;;;;;;;;;;;;;5030867;28;19905;-64
2022/09/21 00:45:26;;;;;;;;;;;;;;;;;;5030947;28;20317;-67
2022/09/21 00:47:52;;;;;;;;;;;;;;;;;;5030797;28;19912;-67
2022/09/21 00:50:18;;;;;;;;;;;;;;;;;;5013057;28;19927;-64
2022/09/21 00:52:44;;;;;;;;;;;;;;;;;;5030484;28;20287;-66
2022/09/21 00:55:10;;;;;;;;;;;;;;;;;;5013096;28;19995;-66
2022/09/21 00:57:36;;;;;;;;;;;;;;;;;;5030763;28;19965;-65
2022/09/21 01:00:02;;;;;;;;;;;;;;;;;;5012649;28;19909;-65
2022/09/21 01:02:28;;;;;;;;;;;;;;;;;;5012860;28;19912;-67
2022/09/21 01:04:54;;;;;;;;;;;;;;;;;;5030685;28;19905;-69
2022/09/21 01:07:20;;;;;;;;;;;;;;;;;;5030628;28;19909;-67
2022/09/21 01:09:46;;;;;;;;;;;;;;;;;;5015411;28;19905;-66
2022/09/21 01:12:12;;;;;;;;;;;;;;;;;;5034059;28;19912;-64
2022/09/21 01:14:38;;;;;;;;;;;;;;;;;;5034053;28;19905;-64
2022/09/21 01:17:04;;;;;;;;;;;;;;;;;;5033828;28;19970;-65
2022/09/21 01:19:30;;;;;;;;;;;;;;;;;;5033967;28;20413;-66
2022/09/21 01:21:57;;;;;;;;;;;;;;;;;;5016337;28;20011;-64
2022/09/21 01:24:23;;;;;;;;;;;;;;;;;;5034125;28;19905;-64
2022/09/21 01:26:49;;;;;;;;;;;;;;;;;;5033869;28;19950;-65
2022/09/21 01:29:15;;;;;;;;;;;;;;;;;;5016126;28;20360;-67
2022/09/21 01:31:42;;;;;;;;;;;;;;;;;;5033866;28;20257;-67
2022/09/21 01:34:08;;;;;;;;;;;;;;;;;;5016034;28;20337;-64
2022/09/21 01:36:34;;;;;;;;;;;;;;;;;;5033870;28;19909;-68
2022/09/21 01:39:00;;;;;;;;;;;;;;;;;;5015860;28;19919;-65
2022/09/21 01:41:26;;;;;;;;;;;;;;;;;;5033658;28;19916;-67
2022/09/21 01:43:52;;;;;;;;;;;;;;;;;;5033615;28;19906;-67
2022/09/21 01:46:17;;;;;;;;;;;;;;;;;;5015857;28;19931;-67
2022/09/21 01:48:44;;;;;;;;;;;;;;;;;;5033218;28;19905;-65
2022/09/21 01:51:10;;;;;;;;;;;;;;;;;;5033531;28;20380;-67
2022/09/21 01:53:36;;;;;;;;;;;;;;;;;;5015754;28;19990;-65
2022/09/21 01:56:02;;;;;;;;;;;;;;;;;;5033849;28;20042;-67
2022/09/21 01:58:28;;;;;;;;;;;;;;;;;;5033482;28;19924;-65
2022/09/21 02:00:54;;;;;;;;;;;;;;;;;;5033346;28;19984;-66
2022/09/21 02:03:20;;;;;;;;;;;;;;;;;;5015551;28;20008;-67
2022/09/21 02:05:46;;;;;;;;;;;;;;;;;;5033401;28;19905;-66
2022/09/21 02:08:12;;;;;;;;;;;;;;;;;;5015516;28;20371;-67
2022/09/21 02:10:38;;;;;;;;;;;;;;;;;;5015487;28;20250;-65
2022/09/21 02:13:05;;;;;;;;;;;;;;;;;;5033265;28;19913;-67
2022/09/21 02:15:31;;;;;;;;;;;;;;;;;;5015527;28;20428;-65
2022/09/21 02:17:57;;;;;;;;;;;;;;;;;;5032639;28;20004;-65
2022/09/21 02:20:23;;;;;;;;;;;;;;;;;;5032573;28;19953;-67
2022/09/21 02:22:50;;;;;;;;;;;;;;;;;;5032987;28;19912;-67
2022/09/21 02:25:16;;;;;;;;;;;;;;;;;;5033156;28;19959;-65
2022/09/21 02:27:42;;;;;;;;;;;;;;;;;;5032940;28;19937;-66
2022/09/21 02:30:08;;;;;;;;;;;;;;;;;;5032585;28;20329;-67
2022/09/21 02:32:34;;;;;;;;;;;;;;;;;;5032607;28;20011;-68
2022/09/21 02:35:02;;;;;;;;;;;;;;;;;;5032969;28;19905;-64
2022/09/21 02:37:30;;;;;;;;;;;;;;;;;;5032807;28;19912;-65
2022/09/21 02:39:56;;;;;;;;;;;;;;;;;;5032758;28;20268;-65
2022/09/21 02:42:23;;;;;;;;;;;;;;;;;;5032731;28;19979;-67
2022/09/21 02:44:49;;;;;;;;;;;;;;;;;;5032851;28;19905;-64
2022/09/21 02:47:15;;;;;;;;;;;;;;;;;;5014911;28;20393;-64
2022/09/21 02:49:41;;;;;;;;;;;;;;;;;;5032599;28;19912;-64
2022/09/21 02:52:07;;;;;;;;;;;;;;;;;;5014841;28;19931;-64
2022/09/21 02:54:34;;;;;;;;;;;;;;;;;;5014847;28;19966;-66
2022/09/21 02:56:59;;;;;;;;;;;;;;;;;;5032432;28;20003;-64
2022/09/21 02:59:26;;;;;;;;;;;;;;;;;;5032426;28;19965;-65
2022/09/21 03:01:52;;;;;;;;;;;;;;;;;;5032543;28;19905;-66
2022/09/21 03:04:18;;;;;;;;;;;;;;;;;;5032421;28;20547;-65
2022/09/21 03:06:44;;;;;;;;;;;;;;;;;;5014674;28;19952;-68
2022/09/21 03:09:10;;;;;;;;;;;;;;;;;;5032277;28;19963;-64
2022/09/21 03:11:36;;;;;;;;;;;;;;;;;;5032259;28;19909;-64
2022/09/21 03:14:07;;;;;;;;;;;;;;;;;;5014488;28;19909;-66
2022/09/21 03:16:33;;;;;;;;;;;;;;;;;;5031982;28;19924;-66
2022/09/21 03:18:59;;;;;;;;;;;;;;;;;;5032103;28;19970;-65
2022/09/21 03:21:25;;;;;;;;;;;;;;;;;;5032411;28;20368;-67
2022/09/21 03:23:51;;;;;;;;;;;;;;;;;;5032290;28;20038;-67
2022/09/21 03:26:21;;;;;;;;;;;;;;;;;;5032045;28;19945;-66
2022/09/21 03:28:47;;;;;;;;;;;;;;;;;;5032061;28;19909;-67
2022/09/21 03:31:13;;;;;;;;;;;;;;;;;;5031017;28;19928;-65
2022/09/21 03:33:39;;;;;;;;;;;;;;;;;;5031937;28;19930;-65
2022/09/21 03:36:05;;;;;;;;;;;;;;;;;;5014307;28;19912;-64
2022/09/21 03:38:31;;;;;;;;;;;;;;;;;;5031786;28;19917;-65
2022/09/21 03:40:57;;;;;;;;;;;;;;;;;;5031721;28;20329;-66
2022/09/21 03:43:24;;;;;;;;;;;;;;;;;;5031785;28;19912;-65
2022/09/21 03:45:50;;;;;;;;;;;;;;;;;;5031801;28;19909;-65
2022/09/21 03:48:16;;;;;;;;;;;;;;;;;;5031695;28;19982;-65
2022/09/21 03:50:42;;;;;;;;;;;;;;;;;;5031669;28;20393;-65
2022/09/21 03:53:09;;;;;;;;;;;;;;;;;;5014000;28;19905;-67
2022/09/21 03:55:35;;;;;;;;;;;;;;;;;;5031672;28;19999;-67
2022/09/21 03:58:01;;;;;;;;;;;;;;;;;;5031505;28;19963;-65
2022/09/21 04:00:27;;;;;;;;;;;;;;;;;;5031823;28;19969;-65
2022/09/21 04:02:53;;;;;;;;;;;;;;;;;;5031591;28;19934;-64
2022/09/21 04:05:19;;;;;;;;;;;;;;;;;;5031922;28;19916;-65
2022/09/21 04:07:45;;;;;;;;;;;;;;;;;;5031537;28;19909;-68
2022/09/21 04:10:11;;;;;;;;;;;;;;;;;;5013701;28;20316;-66
2022/09/21 04:12:42;;;;;;;;;;;;;;;;;;5031325;28;19928;-63
2022/09/21 04:15:10;;;;;;;;;;;;;;;;;;5031334;28;19958;-65
2022/09/21 04:17:36;;;;;;;;;;;;;;;;;;5030863;28;20035;-66
2022/09/21 04:20:02;;;;;;;;;;;;;;;;;;5031174;28;19905;-64
2022/09/21 04:22:28;;;;;;;;;;;;;;;;;;5031149;28;19966;-65
2022/09/21 04:24:54;;;;;;;;;;;;;;;;;;5031384;28;19932;-66
2022/09/21 04:27:20;;;;;;;;;;;;;;;;;;5013458;28;19957;-68
2022/09/21 04:29:46;;;;;;;;;;;;;;;;;;5031071;28;19913;-65
2022/09/21 04:32:13;;;;;;;;;;;;;;;;;;5030718;28;20261;-66
2022/09/21 04:34:39;;;;;;;;;;;;;;;;;;5031025;28;19958;-67
2022/09/21 04:37:07;;;;;;;;;;;;;;;;;;5031035;28;20020;-64
2022/09/21 04:39:33;;;;;;;;;;;;;;;;;;5031064;28;20338;-67
2022/09/21 04:41:59;;;;;;;;;;;;;;;;;;5031087;28;19909;-67
2022/09/21 04:44:25;;;;;;;;;;;;;;;;;;5030778;28;20329;-65
2022/09/21 04:46:50;;;;;;;;;;;;;;;;;;5012876;28;19965;-67
2022/09/21 04:49:16;;;;;;;;;;;;;;;;;;5030791;28;19909;-66
2022/09/21 04:51:43;;;;;;;;;;;;;;;;;;5030751;28;19912;-66
2022/09/21 04:54:09;;;;;;;;;;;;;;;;;;5013134;28;19912;-65
2022/09/21 04:56:35;;;;;;;;;;;;;;;;;;5013132;28;20042;-66
2022/09/21 04:59:01;;;;;;;;;;;;;;;;;;5030616;28;19909;-66
2022/09/21 05:01:27;;;;;;;;;;;;;;;;;;5030823;28;20360;-65
2022/09/21 05:04:00;;;;;;;;;;;;;;;;;;5012808;28;19985;-64
2022/09/21 05:06:26;;;;;;;;;;;;;;;;;;5030639;28;19916;-65
2022/09/21 05:11:37;;;;;;;;;;;;;;;;;;5030561;28;19965;-67
2022/09/21 05:14:03;;;;;;;;;;;;;;;;;;5030586;28;20349;-68
2022/09/21 05:16:29;;;;;;;;;;;10.00;99.90;;;;;;5030264;28;19917;-66
2022/09/21 05:18:55;;;;;;;;;;;;;;;;;;5030098;28;19928;-67
2022/09/21 05:21:21;;;;;;;;;;;;;;;;;;5012690;28;19909;-68
2022/09/21 05:23:47;;;;;;;;;;;;;;;;;;5030325;28;20000;-67
2022/09/21 05:26:13;;;;;;;;;;;;;;;;;;5030325;28;20254;-65
2022/09/21 05:28:39;;;;;;;;;;;;;;;;;;5030262;28;19916;-64
2022/09/21 05:31:05;;;;;;;;;;;;;;;;;;5030285;28;20112;-65
2022/09/21 05:33:31;;;;;;;;;;;;;;;;;;5030700;28;19954;-63
2022/09/21 05:35:57;;;;;;;;;;;;;;;;;;5030135;28;19905;-65
2022/09/21 05:38:23;;;;;;;;;;;;;;;;;;5030077;28;19909;-68
2022/09/21 05:40:49;;;;;;;;;;;;;;;;;;5012421;28;20272;-64
2022/09/21 05:43:15;;;;;;;;;;;;;;;;;;5030225;28;20379;-64
2022/09/21 05:45:41;;;;;;;;;;;;;;;;;;5012294;28;20019;-64
2022/09/21 05:48:07;;;;;;;;;;;;;;;;;;5030037;28;20372;-67
2022/09/21 05:50:34;;;;;;;;;;;;;;;;;;5012352;28;20256;-67
2022/09/21 05:53:00;;;;;;;;;;;;;;;;;;5029995;28;19905;-64
2022/09/21 05:55:26;;;;;;;;;;;;;;;;;;5014343;28;19913;-65
2022/09/21 05:57:52;;;;;;;;;;;;;;;;;;5033438;28;20283;-64
2022/09/21 06:00:18;;;;;;;;;;;;;;;;;;5033573;28;20240;-66
2022/09/21 06:02:49;;;;;;;;;;;10.00;99.90;;;;;;5033004;28;19908;-64
2022/09/21 06:05:15;;;;;;;;;;;;;;;;;;5033271;28;19966;-64
2022/09/21 06:07:49;;;;;;;;;;;;;;;;;;5033207;28;19985;-64
2022/09/21 06:10:15;;;;;;;;;;;10.60;99.90;;;;;;5033419;28;19916;-65
2022/09/21 06:12:42;;;;;;;;;;;10.70;99.90;;;;;;5033108;28;19924;-65
2022/09/21 06:15:10;;;;;;;;;;;10.80;99.90;;;;;;5014613;28;20007;-64
2022/09/21 06:17:36;;;;;;;;;;;;;;;;;;5015053;28;20261;-65
2022/09/21 06:20:02;;;;;;;;;;;;;;;;;;5033288;28;19927;-67
2022/09/21 06:22:28;;;;;;;;;;;;;;;;;;5032932;28;19909;-69
2022/09/21 06:24:54;;;;;;;;;;;;;;;;;;5015099;28;19905;-68
2022/09/21 06:27:20;;;;;;;;;;;;;;;;;;5033248;28;19905;-64
2022/09/21 06:29:46;;;;;;;;;;;;;;;;;;5032892;28;19909;-63
2022/09/21 06:32:12;;;;;;;;;;;;;;;;;;5032827;28;19905;-64
2022/09/21 06:34:38;;;;;;;;;;;;;;;;;;5032538;28;20253;-64
2022/09/21 06:37:04;;;;;;;;;;;;;;;;;;5015023;28;20264;-64
2022/09/21 06:39:30;;;;;;;;;;;;;;;;;;5032413;28;19905;-69
2022/09/21 06:41:56;;;;;;;;;;;;;;;;;;5032763;28;19973;-66
2022/09/21 06:44:22;;;;;;;;;;;;;;;;;;5032695;28;19989;-66
2022/09/21 06:46:48;;;;;;;;;;;;;;;;;;5014951;28;19989;-65
2022/09/21 06:49:14;;;;;;;;;;;;;;;;;;5032606;28;19909;-68
2022/09/21 06:51:40;;;;;;;;;;;;;;;;;;5014743;28;19905;-64
2022/09/21 06:54:06;;;;;;;;;;;;;;;;;;5032529;28;19945;-62
2022/09/21 06:56:32;;;;;;;;;;;;;;;;;;5032431;28;19905;-64
2022/09/21 06:58:58;;;;;;;;;;;;;;;;;;5032300;28;19913;-63
2022/09/21 07:01:24;;;;;;;;;;;;;;;;;;5032108;28;19911;-63
2022/09/21 07:03:50;;;;;;;;;;;;;;;;;;5032384;28;19913;-64
2022/09/21 07:06:16;;;;;;;;;;;;;;;;;;5031039;28;20013;-63
2022/09/21 07:08:43;;;;;;;;;;;;;;;;;;5032265;28;19905;-64
2022/09/21 07:11:09;;;;;;;;;;;;;;;;;;5014394;28;19905;-62
2022/09/21 07:13:35;;;;;;;;;;;;;;;;;;5013996;28;19909;-64
2022/09/21 07:16:01;;;;;;;;;;;;;;;;;;5032234;28;19906;-64
2022/09/21 07:18:27;;;;;;;;;;;;;;;;;;5032013;28;19913;-63
2022/09/21 07:20:53;;;;;;;;;;;;;;;;;;5032067;28;19906;-64
2022/09/21 07:23:21;;;;;;;;;;;;;;;;;;5031802;28;19909;-64
2022/09/21 07:25:51;;;;;;;;;;;;;;;;;;5031978;28;19909;-65
2022/09/21 07:28:17;;;;;;;;;;;;;;;;;;5026886;28;19909;-64
2022/09/21 07:30:43;;;;;;;;;;;;;;;;;;5015876;28;19912;-69
2022/09/21 07:33:09;;;;;;;;;;;;;;;;;;5079137;28;19905;-65
2022/09/21 07:35:35;;;;;;;;;;;11.10;99.90;;;;;;5013876;28;19963;-67
2022/09/21 07:38:01;;;;;;;;;;;;;;;;;;5013661;28;19962;-69
2022/09/21 07:40:26;;;;;;;;;;;;;;;;;;5053330;28;19905;-70
2022/09/21 07:42:52;;;;;;;;;;;;;;;;;;5017375;28;19958;-72
2022/09/21 07:45:18;;;;;;;;;;;;;;;;;;5031491;28;19905;-69
2022/09/21 07:47:45;;;;;;;;;;;;;;;;;;5031387;28;19905;-70
2022/09/21 07:50:11;;;;;;;;;;;;;;;;;;5013461;28;19952;-70
2022/09/21 07:52:37;;;;;;;;;;;;;;;;;;5067413;28;19944;-69
2022/09/21 07:55:03;;;;;;;;;;;;;;;;;;4996576;28;19909;-69
2022/09/21 08:00:14;;;;;;;;;;;;;;;;;;5030258;28;19916;-63
2022/09/21 08:02:39;;;;;;;;;;;;;;;;;;5030726;28;19913;-65
2022/09/21 08:05:05;;;;;;;;;;;;;;;;;;5029529;28;19913;-65
2022/09/21 08:07:31;;;;;;;;;;;;;;;;;;5030753;28;19905;-65
2022/09/21 08:09:57;;;;;;;;;;;;;;;;;;5013147;28;19905;-65
2022/09/21 08:12:23;;;;;;;;;;;;;;;;;;5030514;28;19916;-65
2022/09/21 08:14:49;;;;;;;;;;;;;;;;;;5030393;28;19957;-67
2022/09/21 08:17:15;;;;;;;;;;;;;;;;;;5012095;28;19921;-68
2022/09/21 08:19:41;;;;;;;;;;;;;;;;;;5012686;28;20367;-68
2022/09/21 08:22:07;;;;;;;;;;;;;;;;;;5030537;28;20260;-63
2022/09/21 08:24:34;;;;;;;;;;;;;;;;;;5030265;28;20272;-70
2022/09/21 08:27:00;;;;;;;;;;;;;;;;;;5029971;28;19948;-66
2022/09/21 08:29:26;;;;;;;;;;;;;;;;;;5030833;28;19909;-69
2022/09/21 08:31:55;;;;;;;;;;;;;;;;;;5030687;28;19915;-67
2022/09/21 08:34:22;;;;;;;;;;;;;;;;;;5013020;28;19909;-63
2022/09/21 08:36:48;;;;;;;;;;;;;;;;;;5030960;28;19958;-62
2022/09/21 08:39:14;;;;;;;;;;;13.00;99.90;;;;;;5030683;28;19913;-68
2022/09/21 08:41:39;;;;;;;;;;;13.00;99.90;;;;;;5013089;28;20003;-70
2022/09/21 08:44:08;;;;;;;;;;;13.00;99.90;;;;;;5030664;28;20310;-64
2022/09/21 08:46:34;;;;;;;;;;;13.20;99.90;;;;;;5030553;28;20442;-66
2022/09/21 08:49:09;;;;;;;;;;;13.20;99.90;;;;;;5030287;28;19905;-66
2022/09/21 08:51:36;;;;;;;;;;;13.20;99.90;;;;;;5030112;28;20345;-65
2022/09/21 08:54:26;;;;;;;;;;;13.30;99.90;;;;;;5030569;28;19916;-66
2022/09/21 08:56:52;;;;;;;;;;;13.20;99.90;;;;;;5030421;28;20261;-63
2022/09/21 08:59:18;;;;;;;;;;;;;;;;;;5010273;28;19915;-64
2022/09/21 09:01:44;;;;;;;;;;;;;;;;;;5030117;28;20315;-62
2022/09/21 09:04:10;;;;;;;;;;;;;;;;;;5028475;28;19928;-63
2022/09/21 09:06:36;;;;;;;;;;;;;;;;;;5030366;28;19932;-63
2022/09/21 09:09:02;;;;;;;;;;;;;;;;;;5030070;28;20018;-64
2022/09/21 09:11:28;;;;;;;;;;;;;;;;;;5029552;28;20420;-65
2022/09/21 09:13:54;;;;;;;;;;;;;;;;;;5030754;28;19905;-62
2022/09/21 09:16:20;;;;;;;;;;;;;;;;;;5030292;28;20360;-62
2022/09/21 09:18:46;;;;;;;;;;;;;;;;;;5030489;28;19920;-62
2022/09/21 09:21:15;;;;;;;;;;;12.80;99.90;;;;;;5030346;28;19909;-63
2022/09/21 09:23:41;;;;;;;;;;;;;;;;;;5030053;28;19911;-63
2022/09/21 09:26:07;;;;;;;;;;;;;;;;;;5030412;28;19911;-62
2022/09/21 09:28:33;;;;;;;;;;;;;;;;;;5030441;28;19954;-63
2022/09/21 09:30:59;;;;;;;;;;;;;;;;;;5015478;28;20008;-62
2022/09/21 09:33:26;;;;;;;;;;;;;;;;;;5033765;28;20349;-63
2022/09/21 09:35:52;;;;;;;;;;;;;;;;;;5033852;28;19912;-63
2022/09/21 09:38:18;;;;;;;;;;;;;;;;;;5015843;28;19909;-64
2022/09/21 09:40:44;;;;;;;;;;;;;;;;;;5033613;28;20384;-62
2022/09/21 09:43:10;;;;;;;;;;;;;;;;;;5033688;28;19909;-62
2022/09/21 09:45:36;;;;;;;;;;;;;;;;;;5033883;28;19909;-63
2022/09/21 09:48:02;;;;;;;;;;;;;;;;;;5033480;28;19928;-62
2022/09/21 09:50:28;;;;;;;;;;;;;;;;;;5033475;28;19911;-62
2022/09/21 09:52:53;;;;;;;;;;;;;;;;;;5033274;28;19913;-63
2022/09/21 09:55:19;;;;;;;;;;;;;;;;;;5023954;28;19920;-62
2022/09/21 09:57:46;;;;;;;;;;;;;;;;;;5029615;28;19952;-64
2022/09/21 10:00:11;;;;;;;;;;;;;;;;;;5033052;28;20365;-66
2022/09/21 10:02:37;;;;;;;;;;;;;;;;;;5032990;28;19905;-66
2022/09/21 10:05:07;;;;;;;;;;;;;;;;;;5015393;28;20352;-62
2022/09/21 10:07:33;;;;;;;;;;;;;;;;;;5017031;28;19988;-62
2022/09/21 10:09:59;;;;;;;;;;;;;;;;;;5013408;28;19912;-62
2022/09/21 10:12:26;;;;;;;;;;;;;;;;;;5013131;28;19905;-62
2022/09/21 10:14:52;;;;;;;;;;;;;;;;;;5013255;28;19992;-62
2022/09/21 10:17:18;;;;;;;;;;;;;;;;;;5012725;28;20008;-62
2022/09/21 10:19:44;;;;;;;;;;;;;;;;;;5013449;28;19916;-62
2022/09/21 10:22:10;;;;;;;;;;;;;;;;;;5013107;28;19906;-63
2022/09/21 10:24:36;;;;;;;;;;;;;;;;;;5080913;28;20037;-63
2022/09/21 10:27:02;;;;;;;;;;;;;;;;;;5081139;28;20358;-63
2022/09/21 10:29:27;;;;;;;;;;;;;;;;;;5013042;28;20375;-62
2022/09/21 10:31:54;;;;;;;;;;;;;;;;;;5012950;28;19968;-63
2022/09/21 10:34:20;;;;;;;;;;;;;;;;;;5012913;28;19905;-65
2022/09/21 10:36:46;;;;;;;;;;;;;;;;;;5012736;28;19966;-65
2022/09/21 10:39:12;;;;;;;;;;;;;;;;;;5012771;28;20386;-68
2022/09/21 10:41:38;;;;;;;;;;;;;;;;;;5012167;28;19909;-65
2022/09/21 10:44:11;;;;;;;;;;;12.40;99.90;;;;;;5012912;28;19905;-64
2022/09/21 10:46:37;;;;;;;;;;;;;;;;;;5012427;28;20365;-64
2022/09/21 10:49:03;;;;;;;;;;;;;;;;;;5012620;28;19992;-65
2022/09/21 10:51:29;;;;;;;;;;;;;;;;;;5012528;28;20042;-71
2022/09/21 10:53:55;;;;;;;;;;;;;;;;;;5012234;28;19905;-68
2022/09/21 10:56:21;;;;;;;;;;;;;;;;;;5012141;28;19992;-69
2022/09/21 10:58:47;;;;;;;;;;;;;;;;;;5012304;28;20408;-65
2022/09/21 11:01:13;;;;;;;;;;;;;;;;;;5080321;28;19936;-67
2022/09/21 11:03:40;;;;;;;;;;;;;;;;;;5080385;28;19910;-65
2022/09/21 11:06:06;;;;;;;;;;;;;;;;;;5012415;28;19910;-66
2022/09/21 11:08:32;;;;;;;;;;;;;;;;;;5012093;28;20349;-65
2022/09/21 11:10:58;;;;;;;;;;;;;;;;;;5012671;28;19906;-65
2022/09/21 11:13:24;;;;;;;;;;;;;;;;;;5080327;28;19916;-71
2022/09/21 11:15:50;;;;;;;;;;;;;;;;;;5080220;28;20249;-70
2022/09/21 11:18:16;;;;;;;;;;;;;;;;;;5011633;28;19918;-68
2022/09/21 11:20:42;;;;;;;;;;;;;;;;;;5011802;28;20585;-69
2022/09/21 11:23:09;;;;;;;;;;;;;;;;;;5079886;28;19906;-69
2022/09/21 11:25:35;;;;;;;;;;;;;;;;;;5012149;28;19937;-69
2022/09/21 11:28:01;;;;;;;;;;;;;;;;;;5012092;28;19988;-69
2022/09/21 11:30:27;;;;;;;;;;;;;;;;;;5011596;28;19905;-68
2022/09/21 11:33:12;;;;;;;;;;;13.40;99.90;;;;;;5011939;28;19905;-68
2022/09/21 11:35:39;;;;;;;;;;;;;;;;;;5012060;28;19994;-70
2022/09/21 11:38:05;;;;;;;;;;;;;;;;;;5011890;28;19918;-69
2022/09/21 11:40:31;;;;;;;;;;;;;;;;;;5011769;28;19905;-70
2022/09/21 11:42:57;;;;;;;;;;;;;;;;;;5011902;28;19906;-68
2022/09/21 11:45:23;;;;;;;;;;;;;;;;;;5011765;28;20321;-67
2022/09/21 11:47:49;;;;;;;;;;;;;;;;;;5011834;28;20252;-71
2022/09/21 11:50:16;;;;;;;;;;;;;;;;;;5079672;28;20302;-74
2022/09/21 11:52:43;;;;;;;;;;;;;;;;;;5010680;28;20349;-72
2022/09/21 11:55:08;;;;;;;;;;;;;;;;;;5011608;28;19905;-71
2022/09/21 11:57:34;;;;;;;;;;;;;;;;;;5011574;28;19936;-72
2022/09/21 12:00:00;;;;;;;;;;;;;;;;;;5011607;28;19910;-73
2022/09/21 12:02:27;;;;;;;;;;;;;;;;;;5011726;28;19963;-71
2022/09/21 12:04:54;;;;;;;;;;;;;;;;;;5078866;28;19909;-67
2022/09/21 12:07:20;;;;;;;;;;;;;;;;;;5011527;28;19958;-70
2022/09/21 12:10:04;;;;;;;;;;;14.00;99.90;;;;;;5011651;28;19909;-69
2022/09/21 12:12:44;;;;;;;;;;;18.70;99.90;;;;;;5011724;28;19909;-70
2022/09/21 12:15:18;;;;;;;;;;;17.40;99.90;;;;;;5011528;28;19905;-70
2022/09/21 12:17:44;;;;;;;;;;;17.80;99.90;;;;;;5092205;28;19972;-73
2022/09/21 12:20:12;;;;;;;;;;;18.60;99.90;;;;;;5094197;28;19908;-69
2022/09/21 12:22:40;;;;;;;;;;;19.50;99.90;;;;;;5093647;28;19907;-73
2022/09/21 12:25:06;;;;;;;;;;;;;;;;;;5093851;28;20032;-69
2022/09/21 12:27:32;;;;;;;;;;;;;;;;;;5092740;28;20340;-71
2022/09/21 12:29:58;;;;;;;;;;;;;;;;;;5092654;28;19912;-71
2022/09/21 12:32:48;;;;;;;;;;;17.90;99.90;;;;;;5092503;28;19950;-68
2022/09/21 12:35:15;;;;;;;;;;;;;;;;;;5092584;28;19904;-73
2022/09/21 12:37:41;;;;;;;;;;;;;;;;;;5093819;28;19959;-72
2022/09/21 12:40:07;;;;;;;;;;;;;;;;;;5092433;28;19915;-73
2022/09/21 12:42:37;;;;;;;;;;;17.30;99.90;;;;;;5092407;28;19911;-70
2022/09/21 12:45:05;;;;;;;;;;;17.40;99.90;;;;;;5094123;28;19904;-71
2022/09/21 12:47:45;;;;;;;;;;;17.00;99.90;;;;;;5094145;28;19904;-72
2022/09/21 12:50:33;;;;;;;;;;;19.10;99.90;;;;;;5093770;28;19904;-69
2022/09/21 12:53:00;;;;;;;;;;;19.20;99.90;;;;;;5092296;28;19904;-70
2022/09/21 12:55:27;;;;;;;;;;;19.20;99.90;;;;;;5093192;28;20280;-72
2022/09/21 12:57:53;;;;;;;;;;;;;;;;;;5093719;28;20319;-69
2022/09/21 13:00:20;;;;;;;;;;;;;;;;;;5093605;28;19912;-69
2022/09/21 13:02:46;;;;;;;;;;;;;;;;;;5093544;28;19908;-73
2022/09/21 13:05:16;;;;;;;;;;;17.90;99.90;;;;;;5093472;28;20374;-73
2022/09/21 13:07:42;;;;;;;;;;;21.00;99.90;;;;;;5093779;28;19998;-72
2022/09/21 13:10:31;;;;;;;;;;;23.00;99.90;;;;;;5093643;28;19992;-72
2022/09/21 13:13:00;;;;;;;;;;;25.00;99.90;;;;;;5093312;28;19991;-72
2022/09/21 13:15:28;;;;;;;;;;;23.80;99.90;;;;;;5093525;28;19912;-70
2022/09/21 13:18:04;;;;;;;;;;;23.30;99.90;;;;;;5091030;28;20368;-72
2022/09/21 13:20:38;;;;;;;;;;;24.80;97.50;;;;;;5093491;28;19911;-73
2022/09/21 13:23:03;;;;;;;;;;;22.40;99.00;;;;;;5093449;28;19943;-71
2022/09/21 13:25:31;;;;;;;;;;;21.70;99.90;;;;;;5093469;28;20363;-71
2022/09/21 13:28:03;;;;;;;;;;;25.20;97.40;;;;;;5093393;28;19962;-71
2022/09/21 13:30:34;;;;;;;;;;;26.70;93.70;;;;;;5093442;28;19904;-71
2022/09/21 13:33:01;;;;;;;;;;;24.60;91.90;;;;;;5091996;28;19994;-73
2022/09/21 13:35:46;;;;;;;;;;;23.00;96.10;;;;;;5093417;28;19907;-69
2022/09/21 13:38:22;;;;;;;;;;;21.40;98.10;;;;;;5093259;28;19916;-70
2022/09/21 13:40:55;;;;;;;;;;;20.50;99.80;;;;;;5092082;28;19912;-72
2022/09/21 13:43:21;;;;;;;;;;;20.00;99.60;;;;;;5092010;28;19911;-69
2022/09/21 13:45:49;;;;;;;;;;;19.60;99.90;;;;;;5093279;28;19956;-70
2022/09/21 13:48:24;;;;;;;;;;;19.10;99.90;;;;;;5093204;28;19976;-69
2022/09/21 13:50:50;;;;;;;;;;;18.10;99.90;;;;;;5093323;28;19908;-67
2022/09/21 13:53:18;;;;;;;;;;;17.50;99.90;;;;;;5091903;28;19908;-70
2022/09/21 13:55:52;;;;;;;;;;;17.00;99.90;;;;;;5093584;28;19953;-71
2022/09/21 13:58:20;;;;;;;;;;;16.50;99.90;;;;;;5090020;28;19920;-74
2022/09/21 14:01:09;;;;;;;;;;;16.10;99.90;;;;;;5092505;28;19908;-74
2022/09/21 14:03:36;;;;;;;;;;;;;;;;;;5125559;28;19910;-66
2022/09/21 14:06:02;;;;;;;;;;;;;;;;;;5091544;28;19904;-69
2022/09/21 14:08:28;;;;;;;;;;;;;;;;;;5091427;28;20352;-69
2022/09/21 14:10:56;;;;;;;;;;;15.70;99.90;;;;;;5092635;28;20568;-67
2022/09/21 14:13:42;;;;;;;;;;;15.30;99.90;;;;;;5092762;28;19904;-67
2022/09/21 14:16:27;;;;;;;;;;;15.40;99.90;;;;;;5105796;27;19951;-67
2022/09/21 14:18:52;;;;;;;;;;;15.70;99.90;;;;;;5032865;28;20372;-72
2022/09/21 14:21:19;;;;;;;;;;;16.20;99.90;;;;;;5032942;28;19930;-70
2022/09/21 14:24:10;;;;;;;;;;;16.40;99.90;;;;;;5032886;28;19909;-72
2022/09/21 14:26:40;;;;;;;;;;;16.40;99.90;;;;;;5015247;28;19916;-71
2022/09/21 14:29:16;;;;;;;;;;;16.50;99.90;;;;;;5032850;28;19909;-70
2022/09/21 14:31:41;;;;;;;;;;;16.60;99.90;;;;;;5032871;28;19993;-73
2022/09/21 14:34:12;;;;;;;;;;;16.70;99.90;;;;;;5014954;28;19954;-70
2022/09/21 14:36:41;;;;;;;;;;;16.50;99.90;;;;;;5032608;28;19909;-73
2022/09/21 14:39:15;;;;;;;;;;;16.20;99.90;;;;;;5014788;28;20250;-69
2022/09/21 14:41:41;;;;;;;;;;;15.90;99.90;;;;;;5032645;28;19906;-73
2022/09/21 14:44:17;;;;;;;;;;;15.70;99.90;;;;;;5032558;28;19992;-70
2022/09/21 14:46:58;;;;;;;;;;;15.60;99.90;;;;;;5014665;28;19905;-66
2022/09/21 14:49:39;;;;;;;;;;;15.50;99.90;;;;;;5032578;28;20042;-66
2022/09/21 14:52:05;;;;;;;;;;;;;;;;;;5014730;28;20049;-66
2022/09/21 14:54:43;;;;;;;;;;;15.40;99.90;;;;;;5032390;28;19945;-67
2022/09/21 14:57:09;;;;;;;;;;;15.30;99.90;;;;;;5014591;28;19905;-67
2022/09/21 14:59:49;;;;;;;;;;;15.30;99.90;;;;;;5032260;28;19919;-66
2022/09/21 15:02:19;;;;;;;;;;;15.40;99.90;;;;;;5032385;28;19905;-66
2022/09/21 15:05:04;;;;;;;;;;;15.40;99.90;;;;;;5032038;28;19905;-67
2022/09/21 15:12:59;;;;;;;;;;;;;;;;;;5029071;28;19911;-68
2022/09/21 15:15:25;;;;;;;;;;;;;;;;;;5031998;28;20004;-68
2022/09/21 15:17:51;;;;;;;;;;;;;;;;;;5030856;28;19924;-67
2022/09/21 15:20:17;;;;;;;;;;;;;;;;;;5013880;28;19909;-67
2022/09/21 15:22:43;;;;;;;;;;;;;;;;;;5013841;28;19920;-65
2022/09/21 15:25:09;;;;;;;;;;;;;;;;;;5031467;28;19909;-64
2022/09/21 15:27:35;;;;;;;;;;;;;;;;;;5030115;28;19926;-68
2022/09/21 15:30:01;;;;;;;;;;;;;;;;;;5031183;28;19909;-66
2022/09/21 15:32:27;;;;;;;;;;;;;;;;;;5031421;28;19920;-67
2022/09/21 15:34:53;;;;;;;;;;;;;;;;;;5031443;28;19905;-69
2022/09/21 15:37:19;;;;;;;;;;;;;;;;;;5013860;28;19905;-65
2022/09/21 15:39:45;;;;;;;;;;;;;;;;;;5031729;28;19909;-65
2022/09/21 15:42:10;;;;;;;;;;;;;;;;;;5013993;28;19909;-69
2022/09/21 15:44:37;;;;;;;;;;;;;;;;;;5013751;28;19909;-67
2022/09/21 15:47:03;;;;;;;;;;;;;;;;;;5031513;28;19944;-68
2022/09/21 15:49:29;;;;;;;;;;;;;;;;;;5031450;28;19963;-67
2022/09/21 15:51:55;;;;;;;;;;;;;;;;;;5031880;28;20264;-66
2022/09/21 15:54:21;;;;;;;;;;;;;;;;;;5031455;28;20268;-72
2022/09/21 15:56:47;;;;;;;;;;;;;;;;;;5031329;28;19909;-68
2022/09/21 15:59:13;;;;;;;;;;;;;;;;;;5031235;28;20310;-70
2022/09/21 16:01:41;;;;;;;;;;;;;;;;;;5013734;28;20331;-63
2022/09/21 16:04:07;;;;;;;;;;;;;;;;;;5031238;28;19916;-66
2022/09/21 16:06:37;;;;;;;;;;;13.70;99.90;;;;;;5013409;28;19905;-65
2022/09/21 16:09:22;;;;;;;;;;;13.70;99.90;;;;;;5030097;28;19905;-67
2022/09/21 16:11:48;;;;;;;;;;;;;;;;;;5012240;28;19905;-68
2022/09/21 16:16:59;;;;;;;;;;;;;;;;;;5030430;28;19923;-65
2022/09/21 16:19:38;;;;;;;;;;;13.40;99.90;;;;;;5030367;28;20000;-63
2022/09/21 16:22:04;;;;;;;;;;;;;;;;;;5030982;28;19905;-66
2022/09/21 16:24:30;;;;;;;;;;;;;;;;;;5030581;28;19928;-65
2022/09/21 16:26:56;;;;;;;;;;;;;;;;;;5029402;28;19905;-68